Time;durP1;ratioP1;P1;durP2;ratioP2;P2;SDS_P1;SDS_P2;PMS_P1;PMS_P2;Temp;Humidity;BMP_temperature;BMP_pressure;BME280_temperature;BME280_humidity;BME280_pressure;Samples;Min_cycle;Max_cycle;Signal;HPM_P1;HPM_P2
2022/11/28 00:01:07;;;;;;;6.75;2.55;;;;;;;3.79;59.14;101243.56;4976480;28;20116;-69
2022/11/28 00:03:32;;;;;;;3.78;2.28;;;;;;;3.82;58.67;101238.34;4984452;28;20030;-70
2022/11/28 00:06:06;;;;;;;5.03;2.35;;;;;;;3.91;58.44;101240.03;4987605;28;20054;-69
2022/11/28 00:08:32;;;;;;;4.28;2.83;;;;;;;3.82;58.51;101240.09;4988492;28;20073;-71
2022/11/28 00:10:57;;;;;;;4.88;3.10;;;;;;;4.06;58.11;101232.16;4985256;28;20046;-69
2022/11/28 00:13:23;;;;;;;5.43;2.90;;;;;;;3.77;59.02;101232.38;4986541;28;20109;-69
2022/11/28 00:16:01;;;;;;;4.00;2.90;;;;;;;3.64;59.15;101235.88;4990985;28;20034;-70
2022/11/28 00:18:27;;;;;;;6.18;2.70;;;;;;;3.92;58.55;101232.28;4986075;28;20053;-71
2022/11/28 00:21:07;;;;;;;5.38;2.42;;;;;;;3.90;58.55;101221.06;4984913;28;20124;-70
2022/11/28 00:23:33;;;;;;;11.43;2.75;;;;;;;3.65;59.17;101216.91;4986416;28;20042;-72
2022/11/28 00:26:08;;;;;;;4.55;2.58;;;;;;;3.67;59.50;101212.59;4992057;28;20042;-72
2022/11/28 00:28:35;;;;;;;6.53;2.53;;;;;;;3.49;59.74;101200.63;4985755;28;21653;-69
2022/11/28 00:31:00;;;;;;;8.40;2.83;;;;;;;3.86;58.55;101187.50;4988647;28;20137;-70
2022/11/28 00:33:26;;;;;;;5.32;2.92;;;;;;;3.62;58.77;101179.00;4986367;28;20193;-71
2022/11/28 00:36:03;;;;;;;4.45;2.35;;;;;;;3.56;59.53;101174.75;4989022;28;20667;-69
2022/11/28 00:38:30;;;;;;;5.18;2.88;;;;;;;3.50;59.47;101169.63;4985518;28;20042;-71
2022/11/28 00:41:23;;;;;;;7.03;2.97;;;;;;;3.58;59.37;101151.47;4985066;28;20064;-69
2022/11/28 00:43:50;;;;;;;6.45;2.78;;;;;;;3.71;58.97;101154.84;4984274;28;20558;-69
2022/11/28 00:46:17;;;;;;;3.42;1.77;;;;;;;3.68;58.66;101157.44;4989721;28;20527;-70
2022/11/28 00:48:44;;;;;;;5.20;2.78;;;;;;;3.59;59.01;101161.81;4988785;28;20538;-72
2022/11/28 00:51:14;;;;;;;7.07;2.63;;;;;;;3.56;59.15;101153.19;4991558;28;20056;-71
2022/11/28 00:53:41;;;;;;;5.63;2.88;;;;;;;3.67;59.08;101140.22;4993536;28;20593;-72
2022/11/28 00:56:08;;;;;;;4.05;2.55;;;;;;;3.54;58.95;101139.47;5004896;28;20038;-72
2022/11/28 00:58:35;;;;;;;5.18;3.05;;;;;;;3.57;59.16;101129.94;4989844;28;21502;-72
2022/11/28 01:01:16;;;;;;;8.02;2.22;;;;;;;3.43;59.68;101126.59;4994343;28;20053;-74
2022/11/28 01:03:42;;;;;;;5.25;3.15;;;;;;;3.52;59.29;101125.69;4987929;28;20033;-73
2022/11/28 01:06:09;;;;;;;6.13;3.35;;;;;;;3.72;59.05;101120.38;4988977;28;20662;-71
2022/11/28 01:08:35;;;;;;;7.70;2.70;;;;;;;3.57;59.03;101114.44;4979780;28;20507;-72
2022/11/28 01:11:01;;;;;;;5.57;2.75;;;;;;;3.51;59.03;101111.88;4980761;28;20057;-72
2022/11/28 01:13:27;;;;;;;5.32;2.70;;;;;;;3.53;59.12;101110.16;4988693;28;20551;-71
2022/11/28 01:15:52;;;;;;;7.00;3.28;;;;;;;3.38;59.70;101107.66;4987355;28;20223;-73
2022/11/28 01:18:18;;;;;;;4.05;2.53;;;;;;;3.41;59.33;101106.81;4976867;28;20061;-73
2022/11/28 01:20:43;;;;;;;7.75;3.60;;;;;;;3.39;59.61;101120.56;4994031;28;20249;-74
2022/11/28 01:23:09;;;;;;;5.97;3.05;;;;;;;3.32;59.79;101118.06;4993340;28;20104;-76
2022/11/28 01:25:35;;;;;;;5.80;3.25;;;;;;;3.33;59.74;101114.59;4991660;28;20533;-71
2022/11/28 01:28:03;;;;;;;4.15;2.35;;;;;;;3.30;59.46;101115.47;4988515;28;20159;-71
2022/11/28 01:30:28;;;;;;;7.63;3.13;;;;;;;3.45;59.37;101113.66;4977452;28;20053;-71
2022/11/28 01:32:54;;;;;;;5.65;2.42;;;;;;;3.36;59.79;101107.69;5004035;28;20030;-71
2022/11/28 01:35:19;;;;;;;3.88;2.85;;;;;;;3.32;59.80;101108.56;4988041;28;20518;-71
2022/11/28 01:37:44;;;;;;;7.22;3.25;;;;;;;3.34;59.03;101095.66;4994874;28;20034;-70
2022/11/28 01:40:12;;;;;;;6.40;3.03;;;;;;;2.95;60.46;101090.63;4988350;28;20105;-70
2022/11/28 01:42:38;;;;;;;7.80;3.33;;;;;;;3.32;59.40;101087.91;4995581;28;20072;-71
2022/11/28 01:45:19;;;;;;;4.90;2.63;;;;;;;3.52;58.60;101092.94;4989062;28;20080;-71
2022/11/28 01:47:47;;;;;;;5.90;3.63;;;;;;;3.38;59.13;101086.97;4985738;28;20053;-71
2022/11/28 01:50:16;;;;;;;4.05;2.55;;;;;;;3.62;58.08;101069.59;4987811;28;20121;-71
2022/11/28 01:52:46;;;;;;;9.18;3.28;;;;;;;3.39;58.41;101068.03;5000802;28;20026;-72
2022/11/28 01:55:17;;;;;;;4.97;3.47;;;;;;;3.61;57.79;101058.41;4988191;28;20068;-71
2022/11/28 01:57:43;;;;;;;5.85;3.15;;;;;;;3.22;59.02;101069.84;4995205;28;20423;-73
2022/11/28 02:00:15;;;;;;;6.55;3.63;;;;;;;3.34;58.71;101064.66;4997617;28;20040;-72
2022/11/28 02:02:50;;;;;;;6.43;3.22;;;;;;;3.55;57.93;101064.47;4986986;28;20034;-75
2022/11/28 02:05:18;;;;;;;6.43;3.03;;;;;;;3.37;58.48;101067.19;4987376;28;20052;-69
2022/11/28 02:07:43;;;;;;;6.10;3.90;;;;;;;3.72;57.40;101058.34;4994507;28;20041;-71
2022/11/28 02:10:14;;;;;;;4.95;2.78;;;;;;;3.59;57.80;101055.84;4989244;28;20026;-71
2022/11/28 02:12:46;;;;;;;6.10;2.97;;;;;;;3.59;58.00;101044.63;4987680;28;20595;-71
2022/11/28 02:15:32;;;;;;;4.07;2.53;;;;;;;3.70;57.52;101041.97;4986427;28;20057;-71
2022/11/28 02:18:48;;;;;;;8.77;2.75;;;;;;;3.43;57.68;101038.75;4986138;28;20141;-71
2022/11/28 02:21:31;;;;;;;5.93;2.83;;;;;;;3.57;57.55;101048.97;4923997;28;20070;-73
2022/11/28 02:24:24;;;;;;;6.93;3.30;;;;;;;3.79;57.12;101050.50;4921913;29;20521;-72
2022/11/28 02:27:18;;;;;;;8.52;3.28;;;;;;;3.70;57.43;101042.81;4978646;28;20207;-71
2022/11/28 02:30:01;;;;;;;9.55;3.10;;;;;;;3.72;57.09;101041.09;4986907;28;20321;-70
2022/11/28 02:32:43;;;;;;;4.80;2.53;;;;;;;3.72;57.21;101032.47;4986831;28;20069;-73
2022/11/28 02:35:17;;;;;;;6.82;3.10;;;;;;;3.57;57.91;101023.13;4987208;28;20030;-72
2022/11/28 02:38:03;;;;;;;6.60;2.90;;;;;;;3.72;57.09;101014.38;5002865;28;20494;-71
2022/11/28 02:40:37;;;;;;;7.55;2.88;;;;;;;3.59;57.36;101008.47;4989257;28;20062;-72
2022/11/28 02:43:20;;;;;;;5.97;2.63;;;;;;;3.15;58.64;101010.47;4989369;28;20041;-72
2022/11/28 02:45:55;;;;;;;5.60;3.35;;;;;;;3.33;58.49;101011.25;4985936;28;20046;-72
2022/11/28 02:48:39;;;;;;;8.70;3.17;;;;;;;3.24;58.49;101021.63;4992998;28;20037;-71
2022/11/28 02:51:28;;;;;;;5.30;2.88;;;;;;;3.55;58.08;101010.19;4987031;28;20042;-74
2022/11/28 02:53:55;;;;;;;5.10;2.78;;;;;;;3.37;58.02;101003.44;4986952;28;20069;-73
2022/11/28 02:56:23;;;;;;;7.10;3.67;;;;;;;3.41;58.33;101004.31;4991520;28;20053;-73
2022/11/28 02:58:49;;;;;;;6.07;3.35;;;;;;;3.26;58.83;101004.38;4998284;28;20036;-73
2022/11/28 03:01:29;;;;;;;5.45;3.78;;;;;;;3.28;58.66;100998.31;4989684;28;20058;-73
2022/11/28 03:04:42;;;;;;;9.35;3.30;;;;;;;2.99;59.33;101001.13;4987298;28;20043;-74
2022/11/28 03:07:55;;;;;;;7.72;3.85;;;;;;;3.49;58.26;101010.28;4918426;29;20043;-74
2022/11/28 03:10:23;;;;;;;;;;;;;;;3.45;58.34;101000.81;4921164;28;20050;-73
2022/11/28 03:12:52;;;;;;;5.95;2.90;;;;;;;3.48;58.12;100999.94;4916528;28;19922;-75
2022/11/28 03:15:25;;;;;;;4.82;3.47;;;;;;;3.55;58.27;100999.00;4958311;28;20046;-75
2022/11/28 03:18:01;;;;;;;9.13;3.75;;;;;;;3.35;58.37;101000.03;4986969;28;20574;-75
2022/11/28 03:20:30;;;;;;;6.72;3.95;;;;;;;3.37;58.64;100997.44;4991614;28;20663;-74
2022/11/28 03:23:25;;;;;;;6.63;3.40;;;;;;;3.22;59.42;100987.19;4956632;28;21127;-73
2022/11/28 03:26:06;;;;;;;6.35;3.83;;;;;;;3.28;59.22;100992.31;4988412;28;20153;-74
2022/11/28 03:28:44;;;;;;;8.77;4.22;;;;;;;3.22;59.03;100997.53;4947450;28;20046;-74
2022/11/28 03:31:14;;;;;;;8.75;4.00;;;;;;;3.58;58.00;100996.38;4999565;28;20033;-70
2022/11/28 03:33:46;;;;;;;4.97;3.10;;;;;;;3.45;58.41;100997.34;4986009;28;20046;-71
2022/11/28 03:36:20;;;;;;;6.30;3.50;;;;;;;3.40;58.35;100992.22;4988273;28;20499;-70
2022/11/28 03:38:53;;;;;;;6.38;2.72;;;;;;;3.04;59.38;100991.59;4988423;28;20046;-73
2022/11/28 03:41:35;;;;;;;8.38;2.92;;;;;;;3.50;57.83;100986.13;4989752;28;20064;-71
2022/11/28 03:44:04;;;;;;;5.68;2.53;;;;;;;3.39;58.26;100975.03;4984630;28;20045;-70
2022/11/28 03:46:35;;;;;;;6.90;3.25;;;;;;;3.43;58.32;100979.31;4987062;28;20037;-71
2022/11/28 03:49:03;;;;;;;7.55;2.97;;;;;;;3.66;57.47;100988.56;4979579;28;20128;-71
2022/11/28 03:51:36;;;;;;;6.20;3.97;;;;;;;3.50;58.29;100975.78;4996975;28;20565;-71
2022/11/28 03:54:10;;;;;;;7.53;3.03;;;;;;;3.56;58.11;100975.75;4986263;28;20137;-71
2022/11/28 03:56:51;;;;;;;4.88;3.17;;;;;;;3.78;57.29;100976.41;4986282;28;20053;-71
2022/11/28 03:59:42;;;;;;;7.97;3.50;;;;;;;3.96;57.28;100980.53;4987989;28;20034;-72
2022/11/28 04:02:47;;;;;;;5.70;3.28;;;;;;;3.83;57.38;100973.75;4985201;28;20038;-70
2022/11/28 04:05:31;;;;;;;6.63;3.88;;;;;;;3.53;58.16;100968.00;4971215;28;20117;-71
2022/11/28 04:08:17;;;;;;;6.15;3.75;;;;;;;3.33;58.73;100967.31;4987498;28;20669;-71
2022/11/28 04:10:55;;;;;;;4.95;2.65;;;;;;;3.68;57.69;100966.16;4993424;28;20492;-71
2022/11/28 04:13:27;;;;;;;9.32;3.95;;;;;;;3.58;57.86;100955.03;4986699;28;20121;-70
2022/11/28 04:15:58;;;;;;;9.68;4.13;;;;;;;3.39;58.21;100954.34;4987138;28;20120;-70
2022/11/28 04:18:30;;;;;;;8.25;5.13;;;;;;;3.79;57.18;100946.22;4991361;28;20133;-70
2022/11/28 04:21:09;;;;;;;6.00;3.47;;;;;;;3.88;56.83;100953.88;4989669;28;22376;-68
2022/11/28 04:23:38;;;;;;;6.40;3.70;;;;;;;3.71;57.61;100948.88;4989722;28;20129;-68
2022/11/28 04:26:12;;;;;;;5.95;3.50;;;;;;;3.50;58.15;100947.38;4989760;28;20042;-70
2022/11/28 04:28:40;;;;;;;6.65;3.53;;;;;;;3.70;57.60;100954.06;4987332;28;20045;-69
2022/11/28 04:31:07;;;;;;;6.32;4.10;;;;;;;4.05;56.50;100950.22;4989332;28;20049;-69
2022/11/28 04:33:36;;;;;;;10.07;3.10;;;;;;;3.55;57.43;100953.34;4993228;28;20054;-66
2022/11/28 04:36:04;;;;;;;6.68;3.20;;;;;;;3.79;57.04;100943.63;4990145;28;20048;-72
2022/11/28 04:38:32;;;;;;;5.00;3.45;;;;;;;3.72;57.00;100950.59;4990891;28;20038;-72
2022/11/28 04:41:15;;;;;;;5.72;3.75;;;;;;;3.79;56.74;100948.81;4990147;28;20509;-73
2022/11/28 04:43:47;;;;;;;9.13;3.90;;;;;;;4.02;55.96;100941.63;4996074;28;20062;-67
2022/11/28 04:46:17;;;;;;;3.75;2.95;;;;;;;3.92;56.21;100940.03;5008157;28;20026;-68
2022/11/28 04:48:45;;;;;;;7.85;3.10;;;;;;;4.00;56.02;100942.53;4991472;28;20084;-70
2022/11/28 04:51:53;;;;;;;6.60;3.38;;;;;;;3.85;56.18;100938.41;4990387;28;20080;-68
2022/11/28 04:54:19;;;;;;;4.65;2.90;;;;;;;3.71;56.54;100956.63;4987123;28;20579;-68
2022/11/28 04:57:00;;;;;;;5.65;3.38;;;;;;;3.46;57.50;100945.66;4996496;28;20039;-68
2022/11/28 04:59:28;;;;;;;5.57;2.97;;;;;;;3.64;56.71;100941.22;4988856;28;20061;-68
2022/11/28 05:01:57;;;;;;;6.15;3.10;;;;;;;3.71;56.77;100943.69;4988174;28;20128;-68
2022/11/28 05:04:22;;;;;;;6.60;3.92;;;;;;;3.31;57.92;100945.81;4989211;28;20480;-69
2022/11/28 05:06:48;;;;;;;4.15;2.70;;;;;;;3.61;57.05;100944.69;4989029;28;20030;-69
2022/11/28 05:09:16;;;;;;;6.97;3.17;;;;;;;3.65;57.09;100941.19;4991621;28;20036;-68
2022/11/28 05:11:41;;;;;;;7.93;3.78;;;;;;;3.55;57.34;100950.75;4989633;28;20026;-68
2022/11/28 05:14:07;;;;;;;5.63;3.20;;;;;;;3.86;56.30;100945.28;4991058;28;20061;-68
2022/11/28 05:16:32;;;;;;;6.97;3.10;;;;;;;3.53;57.51;100941.31;4989550;28;20034;-68
2022/11/28 05:18:58;;;;;;;4.93;2.70;;;;;;;3.66;57.07;100952.38;4985875;28;20049;-67
2022/11/28 05:21:23;;;;;;;6.43;3.55;;;;;;;3.89;56.12;100940.06;4990220;28;20038;-74
2022/11/28 05:23:49;;;;;;;7.90;2.75;;;;;;;3.94;55.76;100946.06;5002282;28;20037;-70
2022/11/28 05:26:18;;;;;;;4.93;3.22;;;;;;;4.16;55.02;100948.38;4988978;28;20062;-70
2022/11/28 05:28:49;;;;;;;7.57;3.45;;;;;;;4.11;55.22;100939.81;4985505;28;20045;-70
2022/11/28 05:31:17;;;;;;;8.00;3.63;;;;;;;4.07;55.06;100944.16;4995919;28;20133;-70
2022/11/28 05:33:42;;;;;;;5.10;2.95;;;;;;;3.99;55.07;100935.66;4987375;28;20049;-67
2022/11/28 05:36:11;;;;;;;7.68;3.20;;;;;;;4.24;54.59;100945.72;4991179;28;20090;-69
2022/11/28 05:38:39;;;;;;;6.35;3.55;;;;;;;4.16;54.77;100948.38;4985621;28;20066;-68
2022/11/28 05:41:05;;;;;;;5.95;3.42;;;;;;;4.02;55.21;100940.78;4988453;28;20030;-67
2022/11/28 05:43:31;;;;;;;5.20;2.30;;;;;;;4.07;55.23;100948.50;4989659;28;20705;-68
2022/11/28 05:45:56;;;;;;;5.60;2.33;;;;;;;4.01;55.01;100950.28;4985955;28;20038;-68
2022/11/28 05:48:22;;;;;;;4.40;2.83;;;;;;;4.20;54.93;100947.47;4995584;28;20042;-72
2022/11/28 05:50:50;;;;;;;4.70;2.67;;;;;;;4.21;54.59;100947.47;4989977;28;20874;-70
2022/11/28 05:53:18;;;;;;;9.15;3.38;;;;;;;4.46;54.10;100948.88;4987293;28;20046;-69
2022/11/28 05:55:43;;;;;;;3.30;2.80;;;;;;;3.97;55.38;100947.75;4989013;28;20037;-66
2022/11/28 05:58:09;;;;;;;5.57;3.10;;;;;;;4.11;54.89;100948.44;4986811;28;20443;-69
2022/11/28 06:00:35;;;;;;;4.35;2.90;;;;;;;4.19;54.73;100953.53;4988505;28;20137;-69
2022/11/28 06:03:01;;;;;;;3.55;3.03;;;;;;;4.46;54.10;100956.66;5002424;28;20069;-70
2022/11/28 06:05:26;;;;;;;6.00;2.70;;;;;;;4.31;54.66;100955.09;4986258;28;20933;-67
2022/11/28 06:07:52;;;;;;;6.25;3.20;;;;;;;4.24;54.82;100950.88;4990626;28;20034;-67
2022/11/28 06:10:18;;;;;;;7.15;3.72;;;;;;;4.24;54.56;100956.91;4989179;28;20049;-67
2022/11/28 06:12:45;;;;;;;5.80;3.25;;;;;;;4.29;54.75;100959.44;4986964;28;20065;-70
2022/11/28 06:15:11;;;;;;;6.43;3.30;;;;;;;4.29;54.54;100959.44;4988713;28;20376;-67
2022/11/28 06:17:40;;;;;;;4.07;3.00;;;;;;;4.31;54.87;100955.94;4986048;28;20092;-67
2022/11/28 06:20:06;;;;;;;4.35;3.13;;;;;;;4.52;54.19;100959.13;4989959;28;20038;-69
2022/11/28 06:22:32;;;;;;;8.05;3.30;;;;;;;4.23;55.21;100950.03;4988614;28;20057;-68
2022/11/28 06:24:58;;;;;;;6.88;3.15;;;;;;;4.41;54.52;100960.16;4987500;28;20022;-68
2022/11/28 06:27:23;;;;;;;4.22;2.90;;;;;;;3.94;55.87;100968.44;4988291;28;20038;-69
2022/11/28 06:29:49;;;;;;;5.45;2.70;;;;;;;4.24;55.62;100962.09;4977233;28;20541;-69
2022/11/28 06:32:14;;;;;;;5.18;3.17;;;;;;;4.30;55.28;100961.16;4987086;28;20307;-69
2022/11/28 06:34:40;;;;;;;6.15;3.28;;;;;;;4.35;55.46;100965.41;4986775;28;20103;-70
2022/11/28 06:37:05;;;;;;;5.43;3.08;;;;;;;4.27;55.82;100962.03;4993699;28;20046;-70
2022/11/28 06:39:31;;;;;;;5.03;3.33;;;;;;;4.38;55.28;100964.50;4990175;28;20042;-69
2022/11/28 06:41:56;;;;;;;7.22;3.65;;;;;;;4.22;55.82;100963.84;4966794;28;20062;-68
2022/11/28 06:44:22;;;;;;;8.38;2.97;;;;;;;4.19;55.99;100963.88;4970472;28;20349;-69
2022/11/28 06:46:48;;;;;;;7.97;3.60;;;;;;;4.32;55.94;100970.63;4959049;28;20133;-68
2022/11/28 06:49:13;;;;;;;5.53;3.53;;;;;;;4.40;55.88;100976.53;4989828;28;20041;-69
2022/11/28 06:51:40;;;;;;;7.20;4.15;;;;;;;4.26;56.43;100972.44;4973471;28;20054;-69
2022/11/28 06:54:06;;;;;;;8.00;4.45;;;;;;;4.12;57.29;100980.31;4988958;28;20042;-69
2022/11/28 06:56:32;;;;;;;7.05;4.05;;;;;;;4.23;57.27;100981.09;4987608;28;20041;-68
2022/11/28 06:59:00;;;;;;;8.98;4.93;;;;;;;4.28;56.97;100984.47;4970003;28;20036;-69
2022/11/28 07:01:29;;;;;;;12.80;5.00;;;;;;;4.27;57.10;100981.88;4987166;28;20644;-68
2022/11/28 07:03:55;;;;;;;7.50;3.97;;;;;;;4.18;57.52;100982.84;4987237;28;20041;-70
2022/11/28 07:06:23;;;;;;;7.20;4.63;;;;;;;4.13;57.68;100977.72;4985780;28;20038;-69
2022/11/28 07:08:49;;;;;;;8.50;4.35;;;;;;;4.24;57.57;100977.59;4942908;28;20038;-69
2022/11/28 07:11:22;;;;;;;7.88;4.38;;;;;;;3.84;58.57;100983.22;4988735;28;20457;-68
2022/11/28 07:13:49;;;;;;;7.53;4.32;;;;;;;4.11;58.02;100976.88;4985953;28;20451;-69
2022/11/28 07:16:27;;;;;;;7.60;4.50;;;;;;;3.94;58.72;100984.84;4987507;28;20042;-69
2022/11/28 07:18:53;;;;;;;9.40;5.30;;;;;;;4.08;58.40;100991.59;4975791;28;20491;-69
2022/11/28 07:21:19;;;;;;;8.52;5.38;;;;;;;4.25;57.82;100986.22;4975197;28;20046;-69
2022/11/28 07:23:45;;;;;;;8.90;4.28;;;;;;;4.26;58.08;100990.53;4983861;28;20273;-69
2022/11/28 07:26:12;;;;;;;6.70;5.22;;;;;;;4.26;57.74;101000.88;4991745;28;20044;-69
2022/11/28 07:28:38;;;;;;;7.03;4.00;;;;;;;4.25;58.26;100993.97;4990371;28;20492;-69
2022/11/28 07:31:10;;;;;;;9.85;5.93;;;;;;;4.25;58.23;100994.84;4989277;28;20529;-69
2022/11/28 07:33:37;;;;;;;9.95;5.65;;;;;;;3.78;59.57;100998.78;4971369;28;20038;-69
2022/11/28 07:36:05;;;;;;;11.63;4.97;;;;;;;3.94;59.43;100996.91;4988288;28;20038;-69
2022/11/28 07:38:30;;;;;;;12.32;5.40;;;;;;;4.15;58.97;100999.28;4975155;28;20512;-70
2022/11/28 07:41:07;;;;;;;8.38;5.50;;;;;;;4.36;58.37;100995.59;4976329;28;20038;-69
2022/11/28 07:43:33;;;;;;;9.43;5.90;;;;;;;4.22;58.77;100994.88;4983462;28;20050;-69
2022/11/28 07:46:02;;;;;;;8.40;4.88;;;;;;;4.21;58.70;101004.38;4979209;28;20060;-70
2022/11/28 07:48:27;;;;;;;8.68;6.15;;;;;;;4.08;59.28;100996.78;4966894;28;20134;-70
2022/11/28 07:50:53;;;;;;;13.88;6.38;;;;;;;3.87;59.47;101003.00;4957255;28;20125;-70
2022/11/28 07:53:18;;;;;;;10.73;6.03;;;;;;;4.22;59.13;101000.06;4970915;28;20386;-68
2022/11/28 07:55:44;;;;;;;9.98;5.75;;;;;;;3.91;59.68;101010.72;4961874;28;20646;-69
2022/11/28 07:58:09;;;;;;;8.77;6.22;;;;;;;4.19;59.23;101007.88;4959175;28;20085;-69
2022/11/28 08:00:34;;;;;;;17.27;6.55;;;;;;;4.22;58.88;101000.91;4952138;28;20034;-68
2022/11/28 08:03:00;;;;;;;12.23;6.07;;;;;;;4.27;58.91;101003.44;4969345;28;20035;-68
2022/11/28 08:05:25;;;;;;;7.68;5.68;;;;;;;4.37;58.46;100999.03;4971334;28;20031;-68
2022/11/28 08:07:51;;;;;;;13.30;6.43;;;;;;;4.36;58.49;100995.59;4968224;28;20050;-68
2022/11/28 08:10:17;;;;;;;10.07;6.63;;;;;;;4.49;58.45;100998.84;4969928;28;20038;-67
2022/11/28 08:12:42;;;;;;;11.93;5.95;;;;;;;4.18;58.89;100993.19;4977551;28;20042;-68
2022/11/28 08:15:08;;;;;;;8.65;5.65;;;;;;;4.60;58.05;101009.09;4989066;28;20089;-68
2022/11/28 08:17:34;;;;;;;11.93;6.82;;;;;;;4.07;59.27;101007.97;4973650;28;20049;-68
2022/11/28 08:20:00;;;;;;;10.38;6.25;;;;;;;4.40;58.96;100997.25;4990153;28;20065;-68
2022/11/28 08:22:25;;;;;;;10.35;6.13;;;;;;;4.61;58.32;101003.91;4970884;28;20046;-67
2022/11/28 08:24:51;;;;;;;13.35;6.72;;;;;;;4.36;58.75;101005.06;4990951;28;20094;-68
2022/11/28 08:27:16;;;;;;;12.10;6.65;;;;;;;4.49;58.63;101005.78;4971610;28;20498;-68
2022/11/28 08:29:42;;;;;;;11.25;7.35;;;;;;;4.57;58.33;100999.63;4988607;28;20113;-69
2022/11/28 08:32:07;;;;;;;11.70;6.95;;;;;;;4.68;57.96;101009.00;4979265;28;20537;-68
2022/11/28 08:34:33;;;;;;;12.07;6.90;;;;;;;4.77;57.63;101003.69;4990421;28;20132;-67
2022/11/28 08:36:58;;;;;;;10.80;6.85;;;;;;;4.63;58.19;101009.91;4987755;28;20084;-68
2022/11/28 08:39:24;;;;;;;11.10;7.80;;;;;;;4.71;57.92;101014.97;4991430;28;20072;-67
2022/11/28 08:41:49;;;;;;;14.25;7.60;;;;;;;4.34;59.11;101014.56;4972620;28;20602;-68
2022/11/28 08:44:15;;;;;;;11.93;6.90;;;;;;;4.49;58.34;101008.38;4990135;28;20454;-69
2022/11/28 08:46:41;;;;;;;8.85;6.05;;;;;;;4.40;58.33;101010.19;4978043;28;20164;-68
2022/11/28 08:49:06;;;;;;;13.52;7.90;;;;;;;4.58;58.14;101018.59;4988321;28;20125;-68
2022/11/28 08:51:32;;;;;;;9.57;6.18;;;;;;;4.09;59.16;101016.59;4990361;28;20099;-69
2022/11/28 08:53:58;;;;;;;12.15;6.85;;;;;;;4.63;58.22;101011.63;4987103;28;20099;-68
2022/11/28 08:56:23;;;;;;;10.00;6.65;;;;;;;4.79;57.46;101023.50;4991265;28;20042;-68
2022/11/28 08:58:49;;;;;;;9.05;6.45;;;;;;;4.31;58.41;101018.06;4986248;28;20034;-69
2022/11/28 09:01:21;;;;;;;14.98;6.95;;;;;;;4.29;59.23;101022.38;4980183;28;20120;-67
2022/11/28 09:03:47;;;;;;;13.65;7.78;;;;;;;4.63;57.93;101024.56;4988069;28;20041;-67
2022/11/28 09:06:14;;;;;;;10.82;6.63;;;;;;;4.88;57.34;101021.69;4988957;28;20395;-68
2022/11/28 09:08:39;;;;;;;10.48;6.47;;;;;;;4.93;57.04;101028.53;4973663;28;20543;-68
2022/11/28 09:11:08;;;;;;;9.80;7.22;;;;;;;4.64;58.04;101040.09;4990719;28;20037;-68
2022/11/28 09:13:35;;;;;;;12.23;7.40;;;;;;;4.72;57.89;101040.00;4987738;28;22107;-69
2022/11/28 09:16:02;;;;;;;11.55;6.78;;;;;;;4.88;57.26;101037.22;4989949;28;20041;-68
2022/11/28 09:18:28;;;;;;;9.25;6.70;;;;;;;4.94;57.28;101037.16;4973178;28;20499;-67
2022/11/28 09:21:02;;;;;;;12.38;7.00;;;;;;;4.76;57.88;101028.72;4987696;28;20064;-70
2022/11/28 09:23:28;;;;;;;15.57;7.30;;;;;;;4.80;57.61;101034.72;4974093;28;20467;-68
2022/11/28 09:25:55;;;;;;;12.50;7.35;;;;;;;4.41;58.67;101042.97;4987615;28;20198;-68
2022/11/28 09:28:22;;;;;;;14.73;8.15;;;;;;;4.73;58.07;101043.44;4974705;28;20610;-69
2022/11/28 09:30:47;;;;;;;13.23;7.57;;;;;;;4.56;58.77;101043.66;4988571;28;20018;-68
2022/11/28 09:33:12;;;;;;;12.27;7.65;;;;;;;4.46;58.76;101044.66;4971966;28;20049;-69
2022/11/28 09:35:39;;;;;;;10.68;7.32;;;;;;;4.80;58.14;101039.91;4971128;28;20100;-68
2022/11/28 09:38:05;;;;;;;10.00;6.32;;;;;;;4.80;57.72;101045.94;4989750;28;20046;-68
2022/11/28 09:40:41;;;;;;;11.65;7.38;;;;;;;4.91;57.91;101039.78;4971327;28;20037;-67
2022/11/28 09:43:22;;;;;;;12.15;7.35;;;;;;;4.75;58.34;101047.72;4989653;28;20488;-69
2022/11/28 09:45:51;;;;;;;13.97;7.77;;;;;;;4.90;57.74;101048.41;4988935;28;20045;-68
2022/11/28 09:48:16;;;;;;;14.05;7.78;;;;;;;4.55;59.22;101039.34;4989932;28;20285;-69
2022/11/28 09:50:43;;;;;;;11.93;8.25;;;;;;;4.81;57.99;101050.25;4987775;28;20100;-69
2022/11/28 09:53:33;;;;;;;12.73;7.70;;;;;;;4.92;57.69;101046.66;4989569;28;20415;-69
2022/11/28 09:56:13;;;;;;;13.82;6.90;;;;;;;4.87;58.07;101045.84;4994688;28;20085;-68
2022/11/28 09:58:47;;;;;;;13.43;7.53;;;;;;;4.90;57.84;101057.06;4990168;28;20068;-69
2022/11/28 10:01:39;;;;;;;11.02;7.22;;;;;;;4.94;57.64;101042.31;4991065;28;20061;-68
2022/11/28 10:04:15;;;;;;;11.27;6.93;;;;;;;4.64;58.50;101040.09;4968750;28;20038;-68
2022/11/28 10:06:51;;;;;;;11.27;7.43;;;;;;;4.89;58.13;101049.31;4970200;28;20122;-68
2022/11/28 10:09:53;;;;;;;12.43;7.82;;;;;;;4.80;58.14;101050.25;5007148;28;20041;-70
2022/11/28 10:12:46;;;;;;;10.60;7.88;;;;;;;4.70;58.56;101049.53;4989828;28;20481;-69
2022/11/28 10:15:14;;;;;;;11.75;7.13;;;;;;;4.59;59.00;101044.47;5009458;28;20045;-68
2022/11/28 10:18:02;;;;;;;13.13;7.43;;;;;;;4.95;57.78;101049.22;5005224;28;20152;-69
2022/11/28 10:20:33;;;;;;;16.33;10.02;;;;;;;4.79;58.71;101052.00;5009320;28;20040;-69
2022/11/28 10:23:04;;;;;;;17.23;10.50;;;;;;;4.49;59.34;101054.97;4992313;28;20045;-68
2022/11/28 10:25:36;;;;;;;14.38;7.30;;;;;;;4.80;58.63;101056.28;4998631;28;20069;-68
2022/11/28 10:28:05;;;;;;;12.40;8.07;;;;;;;5.01;57.94;101049.13;5008743;28;20044;-69
2022/11/28 10:30:38;;;;;;;16.05;8.35;;;;;;;4.80;58.27;101056.28;5003875;28;20044;-67
2022/11/28 10:33:25;;;;;;;13.32;7.40;;;;;;;4.96;58.47;101045.75;4977402;28;20041;-68
2022/11/28 10:35:59;;;;;;;11.88;6.32;;;;;;;4.91;58.18;101045.81;4985551;28;20316;-68
2022/11/28 10:38:27;;;;;;;12.07;8.90;;;;;;;5.10;57.33;101048.13;4994550;28;20092;-69
2022/11/28 10:41:11;;;;;;;10.82;6.70;;;;;;;4.77;59.03;101048.56;4996542;28;20033;-69
2022/11/28 10:44:06;;;;;;;11.10;7.18;;;;;;;4.93;57.94;101048.41;4984685;28;20042;-68
2022/11/28 10:47:00;;;;;;;14.20;6.78;;;;;;;5.08;57.73;101048.19;4989143;28;20076;-69
2022/11/28 10:49:45;;;;;;;10.27;6.78;;;;;;;5.16;57.43;101054.09;5003556;28;20080;-68
2022/11/28 10:52:28;;;;;;;12.38;7.30;;;;;;;5.03;57.95;101053.44;4971987;28;20042;-69
2022/11/28 10:55:21;;;;;;;13.52;9.25;;;;;;;4.84;58.26;101055.38;4995777;28;20034;-68
2022/11/28 10:58:15;;;;;;;12.18;7.57;;;;;;;5.10;57.84;101053.31;4985159;28;20053;-68
2022/11/28 11:00:44;;;;;;;13.52;7.28;;;;;;;5.06;58.05;101057.72;5005898;28;20030;-69
2022/11/28 11:03:14;;;;;;;8.73;6.82;;;;;;;5.14;57.79;101055.00;5004714;28;20037;-69
2022/11/28 11:05:40;;;;;;;12.25;7.15;;;;;;;5.15;57.78;101055.00;4986746;28;20064;-69
2022/11/28 11:08:18;;;;;;;12.13;7.82;;;;;;;5.12;57.89;101054.16;5003241;28;20042;-69
2022/11/28 11:11:00;;;;;;;9.82;6.45;;;;;;;5.08;57.65;101050.78;5004415;28;20033;-68
2022/11/28 11:13:26;;;;;;;;;;;;;;;5.02;58.50;101061.22;4992904;28;20045;-69
2022/11/28 11:15:58;;;;;;;8.93;6.47;;;;;;;4.96;58.36;101062.16;5008346;28;19917;-68
2022/11/28 11:18:25;;;;;;;9.18;7.10;;;;;;;4.95;57.85;101055.25;5002884;28;20048;-69
2022/11/28 11:21:03;;;;;;;9.73;5.93;;;;;;;4.82;58.45;101054.53;5005992;28;20061;-69
2022/11/28 11:23:29;;;;;;;11.75;7.40;;;;;;;5.07;57.99;101053.38;5004029;28;20042;-68
2022/11/28 11:25:57;;;;;;;10.77;6.70;;;;;;;5.06;58.00;101052.53;5005678;28;20048;-68
2022/11/28 11:28:47;;;;;;;10.02;6.93;;;;;;;5.01;58.07;101049.13;4989091;28;20502;-68
2022/11/28 11:31:32;;;;;;;10.23;6.63;;;;;;;4.83;58.27;101051.09;5003295;28;20034;-69
2022/11/28 11:34:00;;;;;;;;;;;;;;;4.96;57.85;101050.94;5003662;28;20034;-69
2022/11/28 11:36:36;;;;;;;16.33;7.43;;;;;;;4.92;58.20;101054.44;5003947;28;19921;-69
2022/11/28 11:39:11;;;;;;;9.63;6.72;;;;;;;4.91;58.12;101052.75;4988348;28;20535;-69
2022/11/28 11:41:39;;;;;;;8.88;6.07;;;;;;;5.03;58.23;101049.97;5002621;28;20026;-68
2022/11/28 11:44:13;;;;;;;10.52;7.15;;;;;;;4.98;57.86;101054.38;4980737;28;20567;-69
2022/11/28 11:46:57;;;;;;;13.05;6.25;;;;;;;5.09;57.80;101049.03;4992567;28;20042;-67
2022/11/28 11:49:33;;;;;;;9.18;6.57;;;;;;;4.76;58.83;101052.00;5007634;28;20044;-69
2022/11/28 11:52:03;;;;;;;9.27;7.22;;;;;;;4.57;58.95;101058.31;4973489;28;20053;-69